Nellis Air Force Base
KLSV : now visible

Airfield :











YOU CAN JOIN US ON...

 
LOGIN :

Register | Disclaimer

   EN    FR    IT 

 









Legend :    VFR   Marginal VFR   IFR   Intensive IFR   Very Intensive IFR
Visi :
Ceiling :
>= 8 km
>= 3000ft
5 to 8 km
1000 to 3000 ft
1500m to 5 km
500 to 1000 ft
800 to 1500m
200 to 500 ft
< 800m
< 200 ft
Symbols :   Thunderstorms  Fog  Heavy snow  Heavy precipitations  Wind > 20 kt







- Airport Elevation : 1870 ft


KLSV - Nellis Air Force Base

CURRENT METAR :
  • 212158Z AUTO 20005KT 10SM CLR 29/M02 A2992 RMK AO2 SLP113 T02941019 $

EXPIRED METARs :
  • 212058Z AUTO 00000KT 10SM CLR 29/M02 A2994 RMK AO2 SLP121 T02881024 57019 $
  • 211958Z AUTO 07006KT 10SM CLR 28/M01 A2997 RMK AO2 SLPNO T02771013 $

TAF TAF KLSV
Valid from the 21 at 15:00 until the 22 at 21:00 UTC


211500Z 2115/2221 VRB06KT 9999 SKC QNH2996INS
BECMG 2117/2118 03010KT 9999 SKC QNH2998INS
BECMG 2201/2202 VRB06KT 9999 SKC QNH2988INS
BECMG 2217/2218 32012KT 9999 FEW250 QNH2990INS TX29/2122Z TN18/2212Z
No reported NOTAMs for that airfield.



MET'MAP, your aeronautical weather chart ! - Copyright ORBIFLY December 2007 - Disclaimer

ORBIFLY MET'MAP TEAM :

Programming & Development : Alexandra Zaïnal
Concept & Development : Baudouin d'Aumeries
Co-Development & Prog : Marc-Olivier Méhu
Technical & hardware support : Manuel Goepfert

Contact : metmap@orbifly.com




SOURCES & CREDITS :

   NOAA       Earth
Advisory